KISQ/ISQ METAR and TAF weather

Enter ICAO airport designator
Station Type Date Time Source
KISQ METAR 2021/01/27 13:15 UTC NOAA

KISQ 271315Z AUTO 31008KT 10SM OVC036 M08/M12 A3030 RMK AO2 T10851121


Station Type Date Time Source
KISQ Decoded METAR 2021/01/27 13:15 UTC NOAA

Manistique, Schoolcraft County Airport, MI, United States (KISQ) 45-58-29N 086-10-19W
Jan 27, 2021 - 08:15 AM EST / 2021.01.27 1315 UTC
Wind: from the NW (310 degrees) at 9 MPH (8 KT):0
Visibility: 10 mile(s):0
Sky conditions: overcast
Temperature: 16.7 F (-8.5 C)
Windchill: 5 F (-15 C):1
Dew Point: 10.2 F (-12.1 C)
Relative Humidity: 75%
Pressure (altimeter): 30.3 in. Hg (1026 hPa)
ob: KISQ 271315Z AUTO 31008KT 10SM OVC036 M08/M12 A3030 RMK AO2 T10851121
cycle: 13

Station Type Date Time Source
KISQ TAF UTC NOAA

Error!

Example: see airport list